< < Back
Terminal Aerodrome Forecast


Current Version              Previous Versions:   1  2  3  4  5  6  7  8  9  

Terminal Aerodrome Forecast

282
FTUS44 KOHX 010500
TAFBNA
TAF
KBNA 010520Z 0106/0206 VRB02KT P6SM SCT250
     FM011100 00000KT 5SM BR SKC
     FM011300 05005KT P6SM SCT050
     FM020200 VRB03KT P6SM SKC=

Latest METAR

321
SAUS70 KWBC 020000 RRT
MTRBNA
METAR KBNA 012353Z 15004KT 10SM BKN120 BKN150 28/17 A3003 RMK AO2 SLP161
T02830167 10311 20283 55002


USA.gov is the U.S. government's official web portal to all federal, state and local government web resources and services.